メインページ
METAR-TAF:

METAR-TAF

空港 :

カムループス, ブリティッシュコロンビア州, カナダ

緯度: 50-42N, 経度: 120-27W, 海抜: 345m

現時点の気象観測

当レポートは50分前の06:00(UTC)に作成
の風 15kt
気温 2°C
湿度 80%
気圧 1016 hPa
視程: 64.4km
高度14000ftの雲はほとんどない
高度20000ftの千切れ雲あり

METAR: CYKA 210600Z 10015KT 40SM FEW140 BKN200 02/M01 A2999 RMK AC1CS6 SLP172

時間: 22:50 (06:50 UTC)

予報

当レポートは12分前の06:38(UTC)に作成
予報は21日の 07時(UTC)から 21日の 19時(UTC)まで有効
の風 15kt
視程: 10km
高度14000ftの雲はほとんどない
高度20000ftの千切れ雲あり

TAF: CYKA 210638Z 2107/2119 10015KT P6SM FEW140 BKN200 RMK NXT FCST BY 211300Z

4,000以上の空港の気象観測と天気予報(METAR報とTAF報)

利用可能な観測所は地図上に黄色い丸と赤い丸で示す。

丸の上にカーソルを重ねると観測所名を参照できる。

次にクリックすると気象観測と天気予報を参照できる。

マップの切り替え:黒色「×」印の緑ボタンをクリックして拡大、「-」印の緑ボタンをクリックして縮小、緑色の三角印をクリックして隣りの地図に切り替え


METAR-TAF: